Pagina principală
METAR-TAF:

METAR-TAF

Aeroporturi :

Aeroportul Internațional Avram Iancu Cluj

Cluj-Napoca, România

Latitudine: 46-47N, longitudine: 023-34E, elevație: 315 m

Observații meteo curente

Raportul a fost făcut în urmă cu 40 de minute, la 15:30 UTC
Vânt 3 kt din direcții variabile
Temperatură 13°C
Umiditate 41%
Presiune 1010 hPa
Vizibilitate de 10 km sau mai mult
Nori puțini la o înălțime de 4000 picior, Cumulonimbus.

METAR: LRCL 201530Z VRB03KT 9999 FEW040CB 13/00 Q1010

Ora: 19:10 (16:10 UTC)

Prognoză

Raportul a fost făcut în urmă cu 2 ore și 10 de minute, la 14:00 UTC
Prognoză valabilă de la 20 ora 15 UTC la 21 ora 00 UTC
Vânt 4 kt din direcții variabile
Vizibilitate de 10 km sau mai mult
Nori împrăștiați la o înălțime de 4000 picior, Cumulonimbus.
Devenind
de la 20 ora 15 UTC la 20 ora 17 UTC
Nori împrăștiați la o înălțime de 5000 picior

TAF: LRCL 201400Z 2015/2100 VRB04KT 9999 SCT040CB BECMG 2015/2017 SCT050

Observații și prognoze meteo pentru peste 4.000 de aeroporturi (rapoarte METAR și TAF).

Stațiile disponibile sunt reprezentate pe hartă prin puncte galbene și roșii.

Țineți indicatorul mouse-ului pe punctul dorit pentru a vedea denumirea stației.

Apoi, faceți clic pentru a vedea observațiile și prognozele meteorologice.

Pentru a schimba harta: Pentru mărire, faceți clic pe butoanele verzi cu cruce neagră; pentru micșorare, pe butonul verde cu o liniuță; pentru hărți învecinate, pe săgețile verzi.


METAR-TAF: